sensor_id;sensor_type;location;lat;lon;timestamp;pressure;altitude;pressure_sealevel;temperature;humidity
25526;BME280;13424;48.424;11.258;2022-09-24T00:01:46;95386.78;;;13.81;75.85
25526;BME280;13424;48.424;11.258;2022-09-24T00:04:12;95380.59;;;13.65;76.33
25526;BME280;13424;48.424;11.258;2022-09-24T00:06:43;95385.91;;;13.45;77.08
25526;BME280;13424;48.424;11.258;2022-09-24T00:09:14;95371.94;;;13.38;77.63
25526;BME280;13424;48.424;11.258;2022-09-24T00:11:41;95373.59;;;13.54;77.16
25526;BME280;13424;48.424;11.258;2022-09-24T00:14:10;95369.88;;;13.65;76.65
25526;BME280;13424;48.424;11.258;2022-09-24T00:16:38;95376.59;;;13.73;76.57
25526;BME280;13424;48.424;11.258;2022-09-24T00:19:04;95375.81;;;13.88;76.32
25526;BME280;13424;48.424;11.258;2022-09-24T00:21:35;95373.47;;;14.07;75.55
25526;BME280;13424;48.424;11.258;2022-09-24T00:24:09;95380.16;;;14.09;75.93
25526;BME280;13424;48.424;11.258;2022-09-24T00:26:57;95378.00;;;14.06;75.91
25526;BME280;13424;48.424;11.258;2022-09-24T00:29:24;95377.44;;;13.94;76.31
25526;BME280;13424;48.424;11.258;2022-09-24T00:31:52;95378.00;;;14.21;75.80
25526;BME280;13424;48.424;11.258;2022-09-24T00:34:19;95373.72;;;14.15;75.94
25526;BME280;13424;48.424;11.258;2022-09-24T00:36:45;95362.44;;;14.18;75.29
25526;BME280;13424;48.424;11.258;2022-09-24T00:39:11;95362.41;;;13.88;76.61
25526;BME280;13424;48.424;11.258;2022-09-24T00:41:41;95361.09;;;13.95;76.49
25526;BME280;13424;48.424;11.258;2022-09-24T00:47:41;95359.25;;;14.06;76.35
25526;BME280;13424;48.424;11.258;2022-09-24T00:50:29;95353.03;;;14.06;75.96
25526;BME280;13424;48.424;11.258;2022-09-24T00:53:17;95343.94;;;13.96;76.49
25526;BME280;13424;48.424;11.258;2022-09-24T00:55:50;95349.56;;;14.00;76.41
25526;BME280;13424;48.424;11.258;2022-09-24T00:58:19;95350.63;;;13.84;76.90
25526;BME280;13424;48.424;11.258;2022-09-24T01:00:54;95350.88;;;13.87;77.18
25526;BME280;13424;48.424;11.258;2022-09-24T01:03:24;95335.91;;;14.02;75.89
25526;BME280;13424;48.424;11.258;2022-09-24T01:05:51;95331.88;;;13.99;76.60
25526;BME280;13424;48.424;11.258;2022-09-24T01:08:19;95337.75;;;13.81;77.38
25526;BME280;13424;48.424;11.258;2022-09-24T01:14:40;95323.81;;;13.84;77.03
25526;BME280;13424;48.424;11.258;2022-09-24T01:21:08;95326.72;;;13.62;78.07
25526;BME280;13424;48.424;11.258;2022-09-24T01:27:05;95317.56;;;13.43;78.03
25526;BME280;13424;48.424;11.258;2022-09-24T01:29:48;95320.94;;;13.18;78.81
25526;BME280;13424;48.424;11.258;2022-09-24T01:35:31;95311.03;;;13.18;79.02
25526;BME280;13424;48.424;11.258;2022-09-24T01:38:06;95300.31;;;13.13;79.33
25526;BME280;13424;48.424;11.258;2022-09-24T01:40:35;95299.28;;;13.24;79.17
25526;BME280;13424;48.424;11.258;2022-09-24T01:43:04;95305.47;;;13.35;79.22
25526;BME280;13424;48.424;11.258;2022-09-24T01:45:32;95303.38;;;13.37;79.02
25526;BME280;13424;48.424;11.258;2022-09-24T01:48:00;95308.63;;;13.17;79.37
25526;BME280;13424;48.424;11.258;2022-09-24T01:50:33;95301.44;;;13.22;79.59
25526;BME280;13424;48.424;11.258;2022-09-24T01:53:06;95296.50;;;12.99;80.43
25526;BME280;13424;48.424;11.258;2022-09-24T01:55:42;95282.84;;;13.00;80.36
25526;BME280;13424;48.424;11.258;2022-09-24T01:58:25;95288.94;;;12.85;81.12
25526;BME280;13424;48.424;11.258;2022-09-24T02:01:00;95278.06;;;13.07;80.24
25526;BME280;13424;48.424;11.258;2022-09-24T02:03:35;95289.59;;;13.18;79.95
25526;BME280;13424;48.424;11.258;2022-09-24T02:06:24;95278.88;;;13.08;80.35
25526;BME280;13424;48.424;11.258;2022-09-24T02:08:50;95279.78;;;13.29;79.54
25526;BME280;13424;48.424;11.258;2022-09-24T02:11:20;95283.78;;;13.31;80.05
25526;BME280;13424;48.424;11.258;2022-09-24T02:14:07;95274.34;;;13.19;80.07
25526;BME280;13424;48.424;11.258;2022-09-24T02:16:47;95274.31;;;13.03;80.49
25526;BME280;13424;48.424;11.258;2022-09-24T02:19:19;95271.00;;;12.86;80.98
25526;BME280;13424;48.424;11.258;2022-09-24T02:21:47;95270.53;;;12.99;81.22
25526;BME280;13424;48.424;11.258;2022-09-24T02:24:31;95257.97;;;13.05;80.78
25526;BME280;13424;48.424;11.258;2022-09-24T02:26:59;95264.09;;;13.00;81.21
25526;BME280;13424;48.424;11.258;2022-09-24T02:29:25;95272.72;;;13.12;80.81
25526;BME280;13424;48.424;11.258;2022-09-24T02:31:55;95265.19;;;12.99;80.80
25526;BME280;13424;48.424;11.258;2022-09-24T02:34:33;95261.97;;;12.97;81.17
25526;BME280;13424;48.424;11.258;2022-09-24T02:37:27;95264.69;;;13.12;80.20
25526;BME280;13424;48.424;11.258;2022-09-24T02:39:54;95260.41;;;13.11;80.48
25526;BME280;13424;48.424;11.258;2022-09-24T02:42:21;95266.41;;;13.39;79.48
25526;BME280;13424;48.424;11.258;2022-09-24T02:44:47;95262.00;;;13.07;80.91
25526;BME280;13424;48.424;11.258;2022-09-24T02:47:13;95257.25;;;13.25;80.47
25526;BME280;13424;48.424;11.258;2022-09-24T02:49:39;95257.81;;;13.42;79.96
25526;BME280;13424;48.424;11.258;2022-09-24T02:52:05;95249.16;;;13.14;80.96
25526;BME280;13424;48.424;11.258;2022-09-24T02:54:31;95243.59;;;13.31;80.45
25526;BME280;13424;48.424;11.258;2022-09-24T02:57:03;95238.53;;;13.30;80.37
25526;BME280;13424;48.424;11.258;2022-09-24T02:59:29;95238.28;;;13.36;80.14
25526;BME280;13424;48.424;11.258;2022-09-24T03:01:55;95243.38;;;13.43;79.96
25526;BME280;13424;48.424;11.258;2022-09-24T03:04:21;95248.69;;;13.33;80.58
25526;BME280;13424;48.424;11.258;2022-09-24T03:06:47;95244.94;;;13.34;80.59
25526;BME280;13424;48.424;11.258;2022-09-24T03:09:13;95237.19;;;13.43;80.14
25526;BME280;13424;48.424;11.258;2022-09-24T03:11:39;95240.69;;;13.43;80.27
25526;BME280;13424;48.424;11.258;2022-09-24T03:14:05;95249.50;;;13.28;80.43
25526;BME280;13424;48.424;11.258;2022-09-24T03:16:31;95248.75;;;13.43;80.25
25526;BME280;13424;48.424;11.258;2022-09-24T03:18:58;95257.31;;;13.55;79.88
25526;BME280;13424;48.424;11.258;2022-09-24T03:21:24;95250.91;;;13.61;79.34
25526;BME280;13424;48.424;11.258;2022-09-24T03:23:50;95250.38;;;13.59;79.23
25526;BME280;13424;48.424;11.258;2022-09-24T03:26:16;95254.38;;;13.72;78.93
25526;BME280;13424;48.424;11.258;2022-09-24T03:28:43;95253.00;;;13.39;80.14
25526;BME280;13424;48.424;11.258;2022-09-24T03:31:09;95260.00;;;13.71;79.42
25526;BME280;13424;48.424;11.258;2022-09-24T03:33:45;95259.75;;;13.77;79.05
25526;BME280;13424;48.424;11.258;2022-09-24T03:36:23;95257.31;;;13.65;79.71
25526;BME280;13424;48.424;11.258;2022-09-24T03:38:54;95260.50;;;13.47;80.11
25526;BME280;13424;48.424;11.258;2022-09-24T03:41:24;95249.78;;;13.42;80.46
25526;BME280;13424;48.424;11.258;2022-09-24T03:43:50;95247.13;;;13.52;80.33
25526;BME280;13424;48.424;11.258;2022-09-24T03:46:16;95243.94;;;13.76;79.47
25526;BME280;13424;48.424;11.258;2022-09-24T03:48:42;95245.25;;;13.58;79.99
25526;BME280;13424;48.424;11.258;2022-09-24T03:51:16;95246.88;;;13.69;79.30
25526;BME280;13424;48.424;11.258;2022-09-24T03:53:43;95242.84;;;13.66;79.87
25526;BME280;13424;48.424;11.258;2022-09-24T03:56:13;95242.88;;;13.77;79.86
25526;BME280;13424;48.424;11.258;2022-09-24T03:58:39;95241.81;;;13.83;79.42
25526;BME280;13424;48.424;11.258;2022-09-24T04:01:10;95242.06;;;13.91;78.77
25526;BME280;13424;48.424;11.258;2022-09-24T04:03:38;95232.66;;;13.74;79.40
25526;BME280;13424;48.424;11.258;2022-09-24T04:06:48;95237.22;;;13.93;78.95
25526;BME280;13424;48.424;11.258;2022-09-24T04:09:14;95230.00;;;13.99;78.63
25526;BME280;13424;48.424;11.258;2022-09-24T04:11:40;95232.13;;;14.17;77.97
25526;BME280;13424;48.424;11.258;2022-09-24T04:14:07;95216.56;;;14.04;78.93
25526;BME280;13424;48.424;11.258;2022-09-24T04:16:34;95231.84;;;14.14;78.49
25526;BME280;13424;48.424;11.258;2022-09-24T04:19:00;95229.72;;;14.16;78.62
25526;BME280;13424;48.424;11.258;2022-09-24T04:21:26;95225.16;;;14.16;78.17
25526;BME280;13424;48.424;11.258;2022-09-24T04:23:52;95227.03;;;14.11;78.57
25526;BME280;13424;48.424;11.258;2022-09-24T04:27:15;95224.34;;;13.95;78.92
25526;BME280;13424;48.424;11.258;2022-09-24T04:29:40;95229.19;;;13.93;78.79
25526;BME280;13424;48.424;11.258;2022-09-24T04:32:06;95225.97;;;13.96;78.37
25526;BME280;13424;48.424;11.258;2022-09-24T04:34:32;95221.13;;;13.88;78.47
25526;BME280;13424;48.424;11.258;2022-09-24T04:36:58;95223.59;;;13.75;78.64
25526;BME280;13424;48.424;11.258;2022-09-24T04:39:24;95220.63;;;13.86;78.26
25526;BME280;13424;48.424;11.258;2022-09-24T04:41:54;95216.06;;;13.77;78.24
25526;BME280;13424;48.424;11.258;2022-09-24T04:44:21;95224.63;;;13.58;79.13
25526;BME280;13424;48.424;11.258;2022-09-24T04:47:47;95224.63;;;13.53;79.32
25526;BME280;13424;48.424;11.258;2022-09-24T04:50:18;95228.91;;;13.54;79.60
25526;BME280;13424;48.424;11.258;2022-09-24T04:52:50;95223.56;;;13.69;78.95
25526;BME280;13424;48.424;11.258;2022-09-24T04:55:16;95227.31;;;13.79;78.63
25526;BME280;13424;48.424;11.258;2022-09-24T04:57:43;95226.78;;;13.77;78.69
25526;BME280;13424;48.424;11.258;2022-09-24T05:00:14;95215.53;;;13.64;79.39
25526;BME280;13424;48.424;11.258;2022-09-24T05:02:42;95212.31;;;13.67;79.29
25526;BME280;13424;48.424;11.258;2022-09-24T05:05:10;95203.47;;;13.62;79.60
25526;BME280;13424;48.424;11.258;2022-09-24T05:07:36;95200.50;;;13.63;79.51
25526;BME280;13424;48.424;11.258;2022-09-24T05:10:04;95205.31;;;13.66;79.03
25526;BME280;13424;48.424;11.258;2022-09-24T05:16:15;95209.63;;;13.62;79.13
25526;BME280;13424;48.424;11.258;2022-09-24T05:18:44;95204.28;;;13.83;78.74
25526;BME280;13424;48.424;11.258;2022-09-24T05:21:10;95206.94;;;13.88;78.94
25526;BME280;13424;48.424;11.258;2022-09-24T05:23:36;95199.16;;;13.81;79.39
25526;BME280;13424;48.424;11.258;2022-09-24T05:26:02;95197.59;;;13.75;79.66
25526;BME280;13424;48.424;11.258;2022-09-24T05:28:49;95201.84;;;13.91;79.11
25526;BME280;13424;48.424;11.258;2022-09-24T05:31:15;95203.44;;;13.97;78.90
25526;BME280;13424;48.424;11.258;2022-09-24T05:33:41;95201.84;;;13.91;79.83
25526;BME280;13424;48.424;11.258;2022-09-24T05:36:08;95200.50;;;13.94;79.83
25526;BME280;13424;48.424;11.258;2022-09-24T05:38:34;95208.53;;;13.89;79.97
25526;BME280;13424;48.424;11.258;2022-09-24T05:41:00;95220.59;;;14.02;79.92
25526;BME280;13424;48.424;11.258;2022-09-24T05:43:26;95215.50;;;13.95;79.29
25526;BME280;13424;48.424;11.258;2022-09-24T05:45:53;95211.47;;;13.97;79.19
25526;BME280;13424;48.424;11.258;2022-09-24T05:49:24;95212.84;;;13.80;79.95
25526;BME280;13424;48.424;11.258;2022-09-24T05:51:50;95222.50;;;13.91;79.62
25526;BME280;13424;48.424;11.258;2022-09-24T05:54:18;95220.59;;;13.56;80.72
25526;BME280;13424;48.424;11.258;2022-09-24T05:56:44;95219.28;;;13.43;81.40
25526;BME280;13424;48.424;11.258;2022-09-24T05:59:51;95212.56;;;13.46;81.42
25526;BME280;13424;48.424;11.258;2022-09-24T06:02:18;95219.00;;;13.65;80.88
25526;BME280;13424;48.424;11.258;2022-09-24T06:04:44;95220.84;;;13.39;81.18
25526;BME280;13424;48.424;11.258;2022-09-24T06:07:10;95223.84;;;13.78;80.38
25526;BME280;13424;48.424;11.258;2022-09-24T06:09:36;95232.66;;;14.09;78.84
25526;BME280;13424;48.424;11.258;2022-09-24T06:12:02;95229.69;;;14.26;78.41
25526;BME280;13424;48.424;11.258;2022-09-24T06:14:28;95226.16;;;14.36;78.05
25526;BME280;13424;48.424;11.258;2022-09-24T06:16:55;95231.00;;;14.34;78.68
25526;BME280;13424;48.424;11.258;2022-09-24T06:19:21;95238.50;;;14.37;78.95
25526;BME280;13424;48.424;11.258;2022-09-24T06:21:48;95246.56;;;14.42;79.06
25526;BME280;13424;48.424;11.258;2022-09-24T06:24:13;95239.53;;;14.66;77.95
25526;BME280;13424;48.424;11.258;2022-09-24T06:26:40;95233.38;;;14.66;78.15
25526;BME280;13424;48.424;11.258;2022-09-24T06:29:06;95237.16;;;14.55;79.44
25526;BME280;13424;48.424;11.258;2022-09-24T06:31:32;95242.22;;;14.66;79.25
25526;BME280;13424;48.424;11.258;2022-09-24T06:33:59;95239.47;;;14.87;78.63
25526;BME280;13424;48.424;11.258;2022-09-24T06:36:27;95230.88;;;14.85;79.41
25526;BME280;13424;48.424;11.258;2022-09-24T06:38:54;95238.34;;;14.93;78.82
25526;BME280;13424;48.424;11.258;2022-09-24T06:41:20;95234.91;;;14.87;79.93
25526;BME280;13424;48.424;11.258;2022-09-24T06:43:46;95238.34;;;15.03;79.11
25526;BME280;13424;48.424;11.258;2022-09-24T06:46:12;95236.16;;;15.05;78.91
25526;BME280;13424;48.424;11.258;2022-09-24T06:48:41;95236.72;;;15.02;79.56
25526;BME280;13424;48.424;11.258;2022-09-24T06:51:42;95230.72;;;15.20;78.67
25526;BME280;13424;48.424;11.258;2022-09-24T06:54:08;95224.03;;;15.13;78.64
25526;BME280;13424;48.424;11.258;2022-09-24T06:56:34;95235.41;;;15.49;77.86
25526;BME280;13424;48.424;11.258;2022-09-24T06:59:00;95225.09;;;15.66;77.49
25526;BME280;13424;48.424;11.258;2022-09-24T07:01:26;95229.47;;;15.91;77.07
25526;BME280;13424;48.424;11.258;2022-09-24T07:03:52;95232.94;;;15.91;76.92
25526;BME280;13424;48.424;11.258;2022-09-24T07:06:18;95235.34;;;15.93;77.71
25526;BME280;13424;48.424;11.258;2022-09-24T07:08:48;95229.19;;;15.87;77.67
25526;BME280;13424;48.424;11.258;2022-09-24T07:11:14;95236.59;;;15.72;78.81
25526;BME280;13424;48.424;11.258;2022-09-24T07:13:40;95241.03;;;15.86;78.01
25526;BME280;13424;48.424;11.258;2022-09-24T07:16:06;95241.84;;;15.87;77.22
25526;BME280;13424;48.424;11.258;2022-09-24T07:18:32;95239.50;;;16.09;77.12
25526;BME280;13424;48.424;11.258;2022-09-24T07:21:01;95252.34;;;15.88;78.57
25526;BME280;13424;48.424;11.258;2022-09-24T07:23:27;95240.81;;;15.83;78.76
25526;BME280;13424;48.424;11.258;2022-09-24T07:25:56;95248.19;;;16.01;77.93
25526;BME280;13424;48.424;11.258;2022-09-24T07:28:22;95253.41;;;15.87;78.03
25526;BME280;13424;48.424;11.258;2022-09-24T07:31:00;95252.06;;;15.90;77.77
25526;BME280;13424;48.424;11.258;2022-09-24T07:33:26;95252.28;;;15.94;77.95
25526;BME280;13424;48.424;11.258;2022-09-24T07:35:52;95257.84;;;15.73;79.13
25526;BME280;13424;48.424;11.258;2022-09-24T07:38:18;95263.81;;;15.60;79.95
25526;BME280;13424;48.424;11.258;2022-09-24T07:40:44;95266.34;;;15.41;80.46
25526;BME280;13424;48.424;11.258;2022-09-24T07:43:10;95271.16;;;15.44;80.63
25526;BME280;13424;48.424;11.258;2022-09-24T07:45:38;95272.44;;;15.52;80.12
25526;BME280;13424;48.424;11.258;2022-09-24T07:48:05;95268.31;;;15.25;81.80
25526;BME280;13424;48.424;11.258;2022-09-24T07:50:39;95272.00;;;15.34;81.20
25526;BME280;13424;48.424;11.258;2022-09-24T07:53:05;95279.50;;;15.43;81.01
25526;BME280;13424;48.424;11.258;2022-09-24T07:55:31;95284.75;;;15.63;80.13
25526;BME280;13424;48.424;11.258;2022-09-24T07:58:04;95274.19;;;15.32;82.02
25526;BME280;13424;48.424;11.258;2022-09-24T08:00:29;95286.78;;;15.37;81.30
25526;BME280;13424;48.424;11.258;2022-09-24T08:02:55;95284.25;;;15.61;80.16
25526;BME280;13424;48.424;11.258;2022-09-24T08:05:22;95289.69;;;15.46;81.00
25526;BME280;13424;48.424;11.258;2022-09-24T08:07:56;95296.28;;;15.74;80.44
25526;BME280;13424;48.424;11.258;2022-09-24T08:10:25;95290.91;;;15.69;80.99
25526;BME280;13424;48.424;11.258;2022-09-24T08:13:01;95292.22;;;15.76;81.81
25526;BME280;13424;48.424;11.258;2022-09-24T08:15:27;95293.78;;;15.82;81.36
25526;BME280;13424;48.424;11.258;2022-09-24T08:17:53;95291.06;;;15.87;81.71
25526;BME280;13424;48.424;11.258;2022-09-24T08:20:19;95284.03;;;15.97;81.21
25526;BME280;13424;48.424;11.258;2022-09-24T08:23:14;95291.28;;;15.96;81.47
25526;BME280;13424;48.424;11.258;2022-09-24T08:25:39;95292.56;;;16.04;81.26
25526;BME280;13424;48.424;11.258;2022-09-24T08:28:07;95296.31;;;16.03;81.34
25526;BME280;13424;48.424;11.258;2022-09-24T08:30:34;95293.41;;;15.99;81.59
25526;BME280;13424;48.424;11.258;2022-09-24T08:33:01;95290.13;;;16.02;82.23
25526;BME280;13424;48.424;11.258;2022-09-24T08:35:26;95290.44;;;16.01;82.11
25526;BME280;13424;48.424;11.258;2022-09-24T08:37:53;95297.88;;;16.14;82.63
25526;BME280;13424;48.424;11.258;2022-09-24T08:40:26;95300.47;;;16.24;82.18
25526;BME280;13424;48.424;11.258;2022-09-24T08:44:03;95307.91;;;16.37;82.30
25526;BME280;13424;48.424;11.258;2022-09-24T08:46:43;95295.50;;;16.65;81.71
25526;BME280;13424;48.424;11.258;2022-09-24T08:49:39;95302.03;;;16.88;81.41
25526;BME280;13424;48.424;11.258;2022-09-24T08:55:41;95303.34;;;17.39;80.83
25526;BME280;13424;48.424;11.258;2022-09-24T09:07:31;95312.13;;;18.06;78.93
25526;BME280;13424;48.424;11.258;2022-09-24T09:10:28;95314.03;;;18.38;78.36
25526;BME280;13424;48.424;11.258;2022-09-24T09:13:25;95317.66;;;18.66;77.69
25526;BME280;13424;48.424;11.258;2022-09-24T09:17:03;95316.56;;;18.48;78.32
25526;BME280;13424;48.424;11.258;2022-09-24T09:19:34;95316.75;;;18.71;77.17
25526;BME280;13424;48.424;11.258;2022-09-24T09:22:16;95321.88;;;18.86;78.04
25526;BME280;13424;48.424;11.258;2022-09-24T09:25:28;95315.78;;;18.61;78.26
25526;BME280;13424;48.424;11.258;2022-09-24T09:28:11;95323.47;;;18.22;79.12
25526;BME280;13424;48.424;11.258;2022-09-24T09:31:53;95323.06;;;17.96;80.09
25526;BME280;13424;48.424;11.258;2022-09-24T09:37:51;95325.16;;;17.99;80.86
25526;BME280;13424;48.424;11.258;2022-09-24T09:41:05;95311.56;;;17.66;82.06
25526;BME280;13424;48.424;11.258;2022-09-24T09:43:37;95321.53;;;17.71;81.99
25526;BME280;13424;48.424;11.258;2022-09-24T09:46:29;95325.84;;;17.48;82.44
25526;BME280;13424;48.424;11.258;2022-09-24T09:49:04;95326.66;;;17.48;82.54
25526;BME280;13424;48.424;11.258;2022-09-24T09:51:38;95334.41;;;17.55;82.76
25526;BME280;13424;48.424;11.258;2022-09-24T09:54:06;95324.66;;;17.35;83.88
25526;BME280;13424;48.424;11.258;2022-09-24T09:56:42;95326.50;;;17.40;83.16
25526;BME280;13424;48.424;11.258;2022-09-24T10:01:41;95324.97;;;17.52;83.57
25526;BME280;13424;48.424;11.258;2022-09-24T10:04:39;95320.94;;;17.74;83.58
25526;BME280;13424;48.424;11.258;2022-09-24T10:07:16;95325.31;;;17.70;83.59
25526;BME280;13424;48.424;11.258;2022-09-24T10:09:44;95319.09;;;18.07;82.44
25526;BME280;13424;48.424;11.258;2022-09-24T10:12:20;95323.00;;;17.82;83.16
25526;BME280;13424;48.424;11.258;2022-09-24T10:15:19;95321.53;;;17.71;83.39
25526;BME280;13424;48.424;11.258;2022-09-24T10:17:52;95317.09;;;17.80;83.09
25526;BME280;13424;48.424;11.258;2022-09-24T10:20:26;95327.94;;;17.75;83.08
25526;BME280;13424;48.424;11.258;2022-09-24T10:26:45;95329.63;;;17.90;83.79
25526;BME280;13424;48.424;11.258;2022-09-24T10:29:30;95330.59;;;17.56;84.09
25526;BME280;13424;48.424;11.258;2022-09-24T10:32:25;95328.28;;;17.25;84.69
25526;BME280;13424;48.424;11.258;2022-09-24T10:35:03;95334.31;;;16.93;86.25
25526;BME280;13424;48.424;11.258;2022-09-24T10:37:56;95329.84;;;17.08;85.32
25526;BME280;13424;48.424;11.258;2022-09-24T10:40:27;95333.91;;;17.05;85.67
25526;BME280;13424;48.424;11.258;2022-09-24T10:43:02;95335.00;;;17.04;86.01
25526;BME280;13424;48.424;11.258;2022-09-24T11:04:54;95328.31;;;18.06;81.84
25526;BME280;13424;48.424;11.258;2022-09-24T11:10:57;95333.25;;;18.69;80.30
25526;BME280;13424;48.424;11.258;2022-09-24T11:16:46;95325.59;;;18.90;77.90
25526;BME280;13424;48.424;11.258;2022-09-24T11:28:39;95321.06;;;18.53;77.83
25526;BME280;13424;48.424;11.258;2022-09-24T11:31:40;95321.75;;;18.12;78.37
25526;BME280;13424;48.424;11.258;2022-09-24T11:46:53;95326.47;;;18.53;79.69
25526;BME280;13424;48.424;11.258;2022-09-24T11:50:26;95328.13;;;18.35;79.69
25526;BME280;13424;48.424;11.258;2022-09-24T11:56:12;95338.31;;;18.57;79.96
25526;BME280;13424;48.424;11.258;2022-09-24T11:58:50;95333.69;;;18.57;79.79
25526;BME280;13424;48.424;11.258;2022-09-24T12:01:27;95334.53;;;18.39;79.22
25526;BME280;13424;48.424;11.258;2022-09-24T12:04:29;95330.69;;;18.07;80.15
25526;BME280;13424;48.424;11.258;2022-09-24T12:07:15;95325.47;;;17.97;80.42
25526;BME280;13424;48.424;11.258;2022-09-24T12:10:21;95322.91;;;18.06;79.89
25526;BME280;13424;48.424;11.258;2022-09-24T12:12:53;95320.22;;;17.87;79.86
25526;BME280;13424;48.424;11.258;2022-09-24T12:15:51;95326.63;;;17.91;80.74
25526;BME280;13424;48.424;11.258;2022-09-24T12:18:38;95319.63;;;17.90;80.45
25526;BME280;13424;48.424;11.258;2022-09-24T12:21:16;95318.75;;;17.76;81.40
25526;BME280;13424;48.424;11.258;2022-09-24T12:23:45;95321.25;;;17.72;81.48
25526;BME280;13424;48.424;11.258;2022-09-24T12:26:15;95324.13;;;17.57;81.68
25526;BME280;13424;48.424;11.258;2022-09-24T12:29:01;95312.47;;;17.38;82.88
25526;BME280;13424;48.424;11.258;2022-09-24T12:32:10;95298.59;;;17.49;81.61
25526;BME280;13424;48.424;11.258;2022-09-24T12:38:19;95308.34;;;17.88;80.73
25526;BME280;13424;48.424;11.258;2022-09-24T12:46:45;95314.38;;;18.50;78.59
25526;BME280;13424;48.424;11.258;2022-09-24T12:52:38;95306.09;;;17.95;80.02
25526;BME280;13424;48.424;11.258;2022-09-24T12:55:28;95300.69;;;17.95;80.49
25526;BME280;13424;48.424;11.258;2022-09-24T12:58:06;95303.44;;;17.90;80.29
25526;BME280;13424;48.424;11.258;2022-09-24T13:00:50;95291.75;;;18.13;79.69
25526;BME280;13424;48.424;11.258;2022-09-24T13:03:37;95296.00;;;18.01;79.30
25526;BME280;13424;48.424;11.258;2022-09-24T13:06:34;95296.81;;;18.01;79.73
25526;BME280;13424;48.424;11.258;2022-09-24T13:09:03;95300.53;;;18.05;80.22
25526;BME280;13424;48.424;11.258;2022-09-24T13:11:47;95299.28;;;17.98;80.64
25526;BME280;13424;48.424;11.258;2022-09-24T13:16:44;95293.22;;;18.06;79.50
25526;BME280;13424;48.424;11.258;2022-09-24T13:19:47;95293.88;;;17.98;79.57
25526;BME280;13424;48.424;11.258;2022-09-24T13:22:32;95297.31;;;18.03;79.83
25526;BME280;13424;48.424;11.258;2022-09-24T13:25:26;95293.03;;;18.02;79.46
25526;BME280;13424;48.424;11.258;2022-09-24T13:28:02;95285.88;;;17.93;79.61
25526;BME280;13424;48.424;11.258;2022-09-24T13:30:43;95282.19;;;18.21;78.41
25526;BME280;13424;48.424;11.258;2022-09-24T13:33:38;95283.59;;;18.19;78.89
25526;BME280;13424;48.424;11.258;2022-09-24T13:42:54;95285.97;;;18.53;78.39
25526;BME280;13424;48.424;11.258;2022-09-24T13:45:22;95282.16;;;18.54;77.70
25526;BME280;13424;48.424;11.258;2022-09-24T13:48:01;95288.72;;;18.66;77.06
25526;BME280;13424;48.424;11.258;2022-09-24T13:50:51;95297.16;;;18.46;78.11
25526;BME280;13424;48.424;11.258;2022-09-24T13:53:47;95292.94;;;18.07;78.87
25526;BME280;13424;48.424;11.258;2022-09-24T13:56:19;95286.28;;;18.51;77.70
25526;BME280;13424;48.424;11.258;2022-09-24T13:58:47;95286.84;;;18.48;78.37
25526;BME280;13424;48.424;11.258;2022-09-24T14:01:25;95279.53;;;18.67;77.01
25526;BME280;13424;48.424;11.258;2022-09-24T14:04:01;95284.03;;;18.86;76.50
25526;BME280;13424;48.424;11.258;2022-09-24T14:06:41;95286.16;;;18.89;75.98
25526;BME280;13424;48.424;11.258;2022-09-24T14:13:35;95286.25;;;18.84;76.03
25526;BME280;13424;48.424;11.258;2022-09-24T14:16:20;95280.66;;;18.94;75.85
25526;BME280;13424;48.424;11.258;2022-09-24T14:18:47;95275.34;;;18.89;76.67
25526;BME280;13424;48.424;11.258;2022-09-24T14:21:29;95285.97;;;18.99;75.67
25526;BME280;13424;48.424;11.258;2022-09-24T14:24:03;95275.56;;;19.06;75.54
25526;BME280;13424;48.424;11.258;2022-09-24T14:26:50;95268.94;;;18.85;75.60
25526;BME280;13424;48.424;11.258;2022-09-24T14:29:25;95260.53;;;19.14;74.23
25526;BME280;13424;48.424;11.258;2022-09-24T14:32:00;95262.53;;;19.08;74.72
25526;BME280;13424;48.424;11.258;2022-09-24T14:34:38;95264.44;;;19.08;75.38
25526;BME280;13424;48.424;11.258;2022-09-24T14:37:16;95265.75;;;18.83;74.83
25526;BME280;13424;48.424;11.258;2022-09-24T14:39:45;95269.03;;;19.07;74.36
25526;BME280;13424;48.424;11.258;2022-09-24T14:42:26;95270.53;;;18.86;74.75
25526;BME280;13424;48.424;11.258;2022-09-24T14:44:54;95272.16;;;19.01;74.40
25526;BME280;13424;48.424;11.258;2022-09-24T14:47:33;95272.25;;;18.82;76.24
25526;BME280;13424;48.424;11.258;2022-09-24T14:50:00;95267.94;;;18.81;75.95
25526;BME280;13424;48.424;11.258;2022-09-24T14:52:39;95264.22;;;18.77;76.97
25526;BME280;13424;48.424;11.258;2022-09-24T14:55:15;95260.22;;;18.88;77.21
25526;BME280;13424;48.424;11.258;2022-09-24T14:57:44;95263.63;;;18.80;77.32
25526;BME280;13424;48.424;11.258;2022-09-24T15:00:36;95264.72;;;18.79;76.68
25526;BME280;13424;48.424;11.258;2022-09-24T15:03:16;95268.16;;;18.98;75.94
25526;BME280;13424;48.424;11.258;2022-09-24T15:05:44;95260.94;;;18.93;75.87
25526;BME280;13424;48.424;11.258;2022-09-24T15:08:27;95273.16;;;18.91;75.75
25526;BME280;13424;48.424;11.258;2022-09-24T15:10:59;95273.44;;;18.76;76.17
25526;BME280;13424;48.424;11.258;2022-09-24T15:13:32;95273.34;;;18.81;75.67
25526;BME280;13424;48.424;11.258;2022-09-24T15:16:19;95269.88;;;18.61;76.41
25526;BME280;13424;48.424;11.258;2022-09-24T15:19:15;95263.06;;;18.64;75.71
25526;BME280;13424;48.424;11.258;2022-09-24T15:21:49;95269.53;;;18.68;76.86
25526;BME280;13424;48.424;11.258;2022-09-24T15:24:17;95252.28;;;18.64;77.60
25526;BME280;13424;48.424;11.258;2022-09-24T15:26:56;95262.78;;;18.52;77.98
25526;BME280;13424;48.424;11.258;2022-09-24T15:29:25;95253.88;;;18.51;78.11
25526;BME280;13424;48.424;11.258;2022-09-24T15:31:52;95248.25;;;18.48;78.86